Etusivu
METAR-TAF:

METAR-TAF

Lentoasemat :

Longyearbyen, Norja

Huippuvuorten lentoasema

Leveyspiiri: 78-15N, Pituuspiiri: 015-28E, korkeus merenpinnasta: 2 m

Tämänhetkinen sää

Tämä raportti tehtiin 1 tunti ja 3 minuuttia sitten, kello 19.50 UTC
Tuuli 12 kn pohjoisen/luoteesta
Lämpötila -4°C
Kosteus 80%
Ilmanpaine 1017 hPa
Näkyvyys: 5000 m
Hajanaisia pilviä 1200 ft:n korkeudessa
Hajonneita pilviä 2000 ft:n korkeudessa
heikkoa lumisadetta

METAR: ENSB 261950Z 33012KT 9999 5000E -SN SCT012 BKN020 M04/M07 Q1017 RMK WIND 1400FT 33009KT

Aika: 22:53 (20:53 UTC)

Sääennuste

Ennuste voimassa 26. päivästä klo 18 UTC - 27. päivään klo 18 UTC
Tuuli 8 kn lännestä
Näkyvyys 10 km tai enemmän
Muutamia pilviä 1000 ft:n korkeudessa
Hajanaisia pilviä 3000 ft:n korkeudessa
Todennäköisyys 40%
26. päivästä klo 18 UTC - 26. päivään klo 21 UTC
Näkyvyys: 2000 m
1000 ft:n korkeudessa
lumisadetta

TAF: ENSB 2618/2718 27008KT 9999 FEW010 SCT030 PROB40 2618/2621 2000 SN VV010

Säähavainnot ja -ennusteet yli 4000 lentoasemalta (METAR- ja TAF-raportit).

Käytössä olevat sääasemat on merkitty karttaan keltaisilla ja punaisilla pisteillä.

Aseta hiiri pisteen päälle nähdäksesi sääaseman nimen.

Klikkaa sitten nähdäksesi säähavainnot ja -ennusteet.

Kartan vaihtaminen: klikkaa mustalla rastilla varustettuja vihreitä pisteitä, niin voit zoomata sisään; viivalla varustettua vihreää pistettä, niin voit zoomata ulos tai vihreitä nuolia, niin pääset viereisille kartoille.


METAR-TAF: